Flight Track Log - Related Links

Times and Time Zones

All times are in EDT time to prevent confusion due to time zone crossing. See the N527MC flight status page for this flight to view local times or setup timezone preferences in your user account.

Time Position Orientation Groundspeed Altitude Reporting Facility
EDT Latitude Longitude Course Direction KTS MPH feet Rate Location/Type
Mon 06:32:55 PM 39.2667 -84.2333 38° Northeast 135 155 5,200  Level Cincinnati TRACON
Mon 06:33:25 PM 39.2833 -84.2167 38° Northeast 138 159 5,400 225 Climbing Cincinnati TRACON
Mon 06:34:15 PM 39.2994 -84.2033 33° Northeast 131 151 5,500 82 Climbing Indianapolis Center
Mon 06:34:38 PM 39.3119 -84.1883 43° Northeast 141 162 5,500 -97 Level Indianapolis Center
Mon 06:35:17 PM 39.3292 -84.1692 41° Northeast 138 159 5,400  Descending Indianapolis Center
Mon 06:35:39 PM 39.3461 -84.1525 37° Northeast 147 169 5,500 97 Climbing Indianapolis Center
Mon 06:36:19 PM 39.3633 -84.1342 39° Northeast 147 169 5,500  Level Indianapolis Center
Mon 06:36:34 PM 39.3739 -84.1208 44° Northeast 157 181 5,500 -97 Level Indianapolis Center
Mon 06:37:21 PM 39.4014 -84.0911 40° Northeast 153 176 5,400  Descending Indianapolis Center
Mon 06:37:47 PM 39.4150 -84.0778 37° Northeast 156 180 5,500 97 Climbing Indianapolis Center
Mon 06:38:23 PM 39.4328 -84.0556 44° Northeast 151 174 5,500  Level Indianapolis Center
Mon 06:39:25 PM 39.4672 -84.0194 39° Northeast 155 178 5,500  Level Indianapolis Center
Mon 06:40:27 PM 39.4981 -83.9831 42° Northeast 152 175 5,500  Level Indianapolis Center
Mon 06:41:29 PM 39.5344 -83.9461 38° Northeast 157 181 5,500  Level Indianapolis Center
Mon 06:41:50 PM 39.5500 -83.9300 39° Northeast 158 182 5,500  Level Indianapolis Center
Mon 06:42:31 PM 39.5683 -83.9078 43° Northeast 160 184 5,500 -55 Level Indianapolis Center
Mon 06:43:39 PM 39.6094 -83.8647 39° Northeast 154 177 5,400  Descending Indianapolis Center
Mon 06:44:35 PM 39.6400 -83.8289 42° Northeast 155 178 5,500 82 Climbing Indianapolis Center
Mon 06:44:52 PM 39.6508 -83.8183 37° Northeast 156 180 5,500  Level Indianapolis Center
Mon 06:45:37 PM 39.6736 -83.7925 41° Northeast 155 178 5,500 -98 Level Indianapolis Center
Mon 06:45:53 PM 39.6825 -83.7844 35° Northeast 153 176 5,400  Descending Indianapolis Center
Mon 06:46:39 PM 39.7064 -83.7564 42° Northeast 154 177 5,500 56 Climbing Indianapolis Center
Mon 06:47:41 PM 39.7397 -83.7197 40° Northeast 154 177 5,500  Level Indianapolis Center
Mon 06:48:43 PM 39.7722 -83.6831 41° Northeast 155 178 5,500  Level Indianapolis Center
Mon 06:49:45 PM 39.8056 -83.6456 41° Northeast 155 178 5,500  Level Indianapolis Center
Mon 06:50:51 PM 39.8447 -83.6039 39° Northeast 153 176 5,500  Level Indianapolis Center
Mon 06:51:49 PM 39.8725 -83.5717 42° Northeast 155 178 5,500  Level Indianapolis Center
Mon 06:52:51 PM 39.9058 -83.5339 41° Northeast 155 178 5,500  Level Indianapolis Center
Mon 06:53:53 PM 39.9389 -83.4967 41° Northeast 154 177 5,500  Level Indianapolis Center
Mon 06:54:54 PM 39.9792 -83.4544 39° Northeast 158 182 5,500 -98 Level Indianapolis Center
Mon 06:55:55 PM 40.0092 -83.4172 44° Northeast 153 176 5,300 -336 Descending Indianapolis Center
Mon 06:56:59 PM 40.0467 -83.3772 39° Northeast 159 183 4,800 -524 Descending Indianapolis Center
Mon 06:58:01 PM 40.0817 -83.3375 41° Northeast 163 188 4,200 -584 Descending Indianapolis Center
Mon 06:58:52 PM 40.1136 -83.3019 40° Northeast 166 191 3,700 -435 Descending Indianapolis Center
Mon 07:00:05 PM 40.1500 -83.2600 41° Northeast 165 190 3,300 -329 Descending Indianapolis Center
Mon 07:02:00 PM 40.2128 -83.1805 44° Northeast  Level FlightAware Approximate
Mon 07:09:00 PM 40.2667 -83.1000 57° Northeast  Level FlightAware Approximate
Mon 07:10:00 PM 40.2797 -83.1148 57° Northeast  Level Estimated

Login

Don't have an account? Register now (free) for customized features, flight alerts, and more!